Time;durP1;ratioP1;P1;durP2;ratioP2;P2;SDS_P1;SDS_P2;PMS_P1;PMS_P2;Temp;Humidity;BMP_temperature;BMP_pressure;BME280_temperature;BME280_humidity;BME280_pressure;Samples;Min_cycle;Max_cycle;Signal;HPM_P1;HPM_P2
2022/10/19 00:02:25;;;;;;;16.23;4.72;;;10.60;99.90;;;;;;5033439;28;20372;-68
2022/10/19 00:04:51;;;;;;;14.15;4.28;;;10.60;99.90;;;;;;5064373;28;20061;-68
2022/10/19 00:07:16;;;;;;;20.33;5.32;;;10.50;99.90;;;;;;5034589;28;20063;-68
2022/10/19 00:09:43;;;;;;;26.02;5.50;;;10.40;99.90;;;;;;5033053;28;20531;-68
2022/10/19 00:12:08;;;;;;;21.35;5.28;;;10.30;99.90;;;;;;5032626;28;20439;-68
2022/10/19 00:14:34;;;;;;;20.80;4.82;;;10.30;99.90;;;;;;5036625;28;20037;-68
2022/10/19 00:17:00;;;;;;;16.77;4.65;;;10.20;99.90;;;;;;5030610;28;20060;-68
2022/10/19 00:19:27;;;;;;;16.58;3.75;;;10.20;99.90;;;;;;5038724;28;20045;-68
2022/10/19 00:21:54;;;;;;;14.85;4.18;;;10.10;99.90;;;;;;5066813;28;20052;-69
2022/10/19 00:24:20;;;;;;;24.45;4.43;;;10.00;99.90;;;;;;5066046;28;20040;-68
2022/10/19 00:26:46;;;;;;;22.38;5.28;;;10.00;99.90;;;;;;5034535;28;20242;-68
2022/10/19 00:29:13;;;;;;;18.35;5.03;;;9.90;99.90;;;;;;5034172;28;20039;-68
2022/10/19 00:31:39;;;;;;;23.88;5.80;;;9.80;99.90;;;;;;5031282;28;20120;-68
2022/10/19 00:34:04;;;;;;;26.23;5.68;;;9.80;99.90;;;;;;5068486;28;20449;-68
2022/10/19 00:36:36;;;;;;;14.32;4.68;;;9.80;99.90;;;;;;5065897;28;20566;-68
2022/10/19 00:39:04;;;;;;;18.08;3.40;;;9.70;99.90;;;;;;5037942;28;20047;-68
2022/10/19 00:41:32;;;;;;;10.32;2.42;;;9.60;99.90;;;;;;5032491;28;20389;-68
2022/10/19 00:44:27;;;;;;;21.52;5.80;;;9.50;99.90;;;;;;5033906;28;20040;-68
2022/10/19 00:46:55;;;;;;;14.23;4.93;;;9.50;99.90;;;;;;5017335;28;20444;-68
2022/10/19 00:49:25;;;;;;;12.98;4.13;;;9.50;99.90;;;;;;5031887;28;20056;-68
2022/10/19 00:51:57;;;;;;;11.55;4.00;;;9.40;99.90;;;;;;5035205;28;20045;-68
2022/10/19 00:54:24;;;;;;;16.23;5.00;;;9.40;99.90;;;;;;5034686;28;20112;-68
2022/10/19 00:56:53;;;;;;;29.70;3.75;;;9.40;99.90;;;;;;5031524;28;20048;-68
2022/10/19 00:59:22;;;;;;;17.13;5.50;;;9.30;99.90;;;;;;5028518;28;20076;-69
2022/10/19 01:01:48;;;;;;;14.38;4.30;;;9.30;99.90;;;;;;5064798;28;20049;-68
2022/10/19 01:04:14;;;;;;;14.90;4.40;;;9.30;99.90;;;;;;5031488;28;20094;-68
2022/10/19 01:06:40;;;;;;;12.50;3.33;;;9.30;99.90;;;;;;5036142;28;20033;-68
2022/10/19 01:09:07;;;;;;;12.50;3.13;;;9.30;99.90;;;;;;5066505;28;20064;-68
2022/10/19 01:11:38;;;;;;;23.77;4.32;;;9.20;99.90;;;;;;5033368;28;20392;-69
2022/10/19 01:14:26;;;;;;;13.32;3.85;;;9.20;99.90;;;;;;5064044;28;20107;-69
2022/10/19 01:17:13;;;;;;;8.57;3.50;;;9.20;99.90;;;;;;5063292;28;20041;-69
2022/10/19 01:19:56;;;;;;;15.38;3.45;;;9.10;99.90;;;;;;5060818;28;20544;-69
2022/10/19 01:22:44;;;;;;;14.15;3.50;;;9.10;99.90;;;;;;5034481;28;20485;-68
2022/10/19 01:25:40;;;;;;;11.77;3.97;;;9.10;99.90;;;;;;5032905;28;20110;-68
2022/10/19 01:28:33;;;;;;;16.23;3.95;;;9.00;99.90;;;;;;5066938;28;20033;-68
2022/10/19 01:31:24;;;;;;;18.27;5.38;;;9.00;99.90;;;;;;5066236;28;20033;-68
2022/10/19 01:34:08;;;;;;;22.17;5.57;;;9.00;99.90;;;;;;5034765;28;20029;-68
2022/10/19 01:36:48;;;;;;;19.35;4.05;;;9.00;99.90;;;;;;5033911;28;20047;-68
2022/10/19 01:39:39;;;;;;;12.60;4.30;;;9.10;99.90;;;;;;5038614;28;20154;-68
2022/10/19 01:42:39;;;;;;;12.02;3.83;;;9.10;99.90;;;;;;5064423;28;20045;-68
2022/10/19 01:45:20;;;;;;;18.13;4.25;;;9.00;99.90;;;;;;5033491;28;20041;-68
2022/10/19 01:47:50;;;;;;;21.42;4.22;;;9.10;99.90;;;;;;5034180;28;20048;-68
2022/10/19 01:50:23;;;;;;;23.52;5.78;;;9.00;99.90;;;;;;5032077;28;20776;-67
2022/10/19 01:52:50;;;;;;;18.17;4.47;;;9.10;99.90;;;;;;5035632;28;20040;-68
2022/10/19 01:55:17;;;;;;;8.50;2.72;;;9.10;99.90;;;;;;5027946;28;20041;-68
2022/10/19 01:57:47;;;;;;;14.57;3.50;;;9.00;99.90;;;;;;5031614;28;20045;-68
2022/10/19 02:00:15;;;;;;;10.95;3.63;;;9.10;99.90;;;;;;5033136;28;20052;-68
2022/10/19 02:02:44;;;;;;;14.30;4.93;;;9.00;99.90;;;;;;5028478;28;20046;-68
2022/10/19 02:05:11;;;;;;;17.70;4.72;;;9.00;99.90;;;;;;5033867;28;20103;-68
2022/10/19 02:07:40;;;;;;;12.43;3.53;;;9.00;99.90;;;;;;5063158;28;20476;-68
2022/10/19 02:10:06;;;;;;;12.20;4.22;;;9.00;99.90;;;;;;5031197;28;20079;-68
2022/10/19 02:12:32;;;;;;;16.58;4.03;;;9.10;99.90;;;;;;5030196;28;20471;-68
2022/10/19 02:15:08;;;;;;;16.10;3.88;;;9.10;99.90;;;;;;5060320;28;20056;-68
2022/10/19 02:17:38;;;;;;;14.30;4.05;;;9.10;99.90;;;;;;5031414;28;20052;-67
2022/10/19 02:20:04;;;;;;;20.73;4.35;;;9.00;99.90;;;;;;5034747;28;20376;-68
2022/10/19 02:22:30;;;;;;;21.98;4.85;;;9.10;99.90;;;;;;5032546;28;20219;-68
2022/10/19 02:24:56;;;;;;;14.40;3.97;;;9.10;99.90;;;;;;5065907;28;20079;-68
2022/10/19 02:27:22;;;;;;;14.77;4.80;;;9.10;99.90;;;;;;5065728;28;20052;-68
2022/10/19 02:29:47;;;;;;;11.10;3.80;;;9.00;99.90;;;;;;5065532;28;20044;-68
2022/10/19 02:32:13;;;;;;;7.15;3.20;;;9.10;99.90;;;;;;5036086;28;20653;-68
2022/10/19 02:34:39;;;;;;;15.93;3.60;;;9.00;99.90;;;;;;5034297;28;20388;-68
2022/10/19 02:37:05;;;;;;;10.70;3.28;;;9.00;99.90;;;;;;5064207;28;20138;-69
2022/10/19 02:39:31;;;;;;;9.00;3.08;;;8.90;99.90;;;;;;5037313;28;20143;-68
2022/10/19 02:42:07;;;;;;;6.88;2.70;;;8.70;99.90;;;;;;5027496;28;20512;-68
2022/10/19 02:44:55;;;;;;;9.15;2.60;;;8.70;99.90;;;;;;5065617;28;20037;-69
2022/10/19 02:47:29;;;;;;;10.00;2.78;;;8.60;99.90;;;;;;5035034;28;20036;-68
2022/10/19 02:49:55;;;;;;;10.77;3.67;;;8.60;99.90;;;;;;5031129;28;20043;-68
2022/10/19 02:52:20;;;;;;;14.57;3.72;;;8.60;99.90;;;;;;5034095;28;20395;-69
2022/10/19 02:54:46;;;;;;;10.23;3.67;;;8.60;99.90;;;;;;5064301;28;20051;-68
2022/10/19 02:57:20;;;;;;;21.52;4.78;;;8.60;99.90;;;;;;5036282;28;20372;-68
2022/10/19 02:59:46;;;;;;;12.73;3.88;;;8.60;99.90;;;;;;5031908;28;20392;-68
2022/10/19 03:02:14;;;;;;;16.00;4.60;;;8.50;99.90;;;;;;5032850;28;20087;-68
2022/10/19 03:04:40;;;;;;;16.30;4.15;;;8.60;99.90;;;;;;5031896;28;20120;-69
2022/10/19 03:07:10;;;;;;;11.25;3.47;;;8.50;99.90;;;;;;5027125;28;20041;-69
2022/10/19 03:09:36;;;;;;;9.80;3.05;;;8.60;99.90;;;;;;5030577;28;20049;-69
2022/10/19 03:12:01;;;;;;;8.93;3.33;;;8.60;99.90;;;;;;5032145;28;20399;-68
2022/10/19 03:14:27;;;;;;;12.18;4.30;;;8.50;99.90;;;;;;5035846;28;20552;-68
2022/10/19 03:16:52;;;;;;;9.52;3.50;;;8.60;99.90;;;;;;5035046;28;20217;-68
2022/10/19 03:19:18;;;;;;;16.67;4.82;;;8.50;99.90;;;;;;5039699;28;20500;-68
2022/10/19 03:21:44;;;;;;;24.25;5.75;;;8.60;99.90;;;;;;5036285;28;20048;-68
2022/10/19 03:24:09;;;;;;;19.85;5.43;;;8.70;99.90;;;;;;5040437;28;20506;-68
2022/10/19 03:26:35;;;;;;;15.88;4.30;;;8.70;99.90;;;;;;5067205;28;20044;-68
2022/10/19 03:29:00;;;;;;;21.25;4.55;;;8.70;99.90;;;;;;5039185;28;20037;-68
2022/10/19 03:31:26;;;;;;;21.27;6.20;;;8.70;99.90;;;;;;5071288;28;20080;-68
2022/10/19 03:33:52;;;;;;;15.75;4.20;;;8.70;99.90;;;;;;5036061;28;20479;-68
2022/10/19 03:36:27;;;;;;;17.98;4.65;;;8.70;99.90;;;;;;5031975;28;20036;-69
2022/10/19 03:38:55;;;;;;;15.95;4.85;;;8.80;99.90;;;;;;5032069;28;20048;-68
2022/10/19 03:41:22;;;;;;;14.30;4.88;;;8.80;99.90;;;;;;5059867;28;20160;-68
2022/10/19 03:43:48;;;;;;;17.83;4.30;;;8.80;99.90;;;;;;5033893;28;20068;-68
2022/10/19 03:46:14;;;;;;;23.38;5.20;;;8.80;99.90;;;;;;5036119;28;20183;-68
2022/10/19 03:48:40;;;;;;;20.02;4.72;;;8.90;99.90;;;;;;5034744;28;20102;-68
2022/10/19 03:51:12;;;;;;;13.75;4.47;;;8.80;99.90;;;;;;5036192;28;20120;-68
2022/10/19 03:53:39;;;;;;;18.80;4.63;;;8.90;99.90;;;;;;5035378;28;20131;-68
2022/10/19 03:56:07;;;;;;;21.52;6.10;;;8.90;99.90;;;;;;5065594;28;20052;-68
2022/10/19 03:58:35;;;;;;;15.10;4.82;;;8.90;99.90;;;;;;5032388;28;20041;-68
2022/10/19 04:01:01;;;;;;;10.90;4.32;;;8.90;99.90;;;;;;5040098;28;20037;-68
2022/10/19 04:03:27;;;;;;;18.45;4.32;;;8.90;99.90;;;;;;5034027;28;20045;-68
2022/10/19 04:06:01;;;;;;;13.63;4.85;;;8.90;99.90;;;;;;5037842;28;20036;-68
2022/10/19 04:08:27;;;;;;;14.52;4.70;;;8.90;99.90;;;;;;5033155;28;20040;-68
2022/10/19 04:10:56;;;;;;;13.30;4.55;;;8.90;99.90;;;;;;5035821;28;20049;-68
2022/10/19 04:13:22;;;;;;;25.27;5.40;;;9.00;99.90;;;;;;5026778;28;20692;-69
2022/10/19 04:15:48;;;;;;;16.30;4.93;;;9.00;99.90;;;;;;5037344;28;20048;-68
2022/10/19 04:18:13;;;;;;;21.08;4.78;;;8.90;99.90;;;;;;5032113;28;20041;-68
2022/10/19 04:20:41;;;;;;;16.08;4.70;;;8.90;99.90;;;;;;5068470;28;20694;-69
2022/10/19 04:23:07;;;;;;;14.35;4.32;;;9.00;99.90;;;;;;5038776;28;20036;-68
2022/10/19 04:25:32;;;;;;;13.07;3.80;;;9.00;99.90;;;;;;5039193;28;20033;-68
2022/10/19 04:27:58;;;;;;;11.50;4.32;;;9.00;99.90;;;;;;5064368;28;20029;-69
2022/10/19 04:30:23;;;;;;;14.05;4.30;;;8.90;99.90;;;;;;5034940;28;20041;-69
2022/10/19 04:32:49;;;;;;;21.45;4.65;;;9.00;99.90;;;;;;5068303;28;20049;-68
2022/10/19 04:35:14;;;;;;;17.90;4.60;;;9.00;99.90;;;;;;5063203;28;20041;-69
2022/10/19 04:37:40;;;;;;;15.98;4.97;;;9.00;99.90;;;;;;5067571;28;20461;-68
2022/10/19 04:40:06;;;;;;;15.77;4.50;;;9.00;99.90;;;;;;5033140;28;20049;-68
2022/10/19 04:42:32;;;;;;;15.40;3.97;;;9.00;99.90;;;;;;5040960;28;20120;-68
2022/10/19 04:44:58;;;;;;;16.40;4.45;;;9.00;99.90;;;;;;5037335;28;20041;-68
2022/10/19 04:47:24;;;;;;;20.75;4.65;;;9.00;99.90;;;;;;5060987;28;20037;-68
2022/10/19 04:49:49;;;;;;;18.95;5.22;;;9.00;99.90;;;;;;5037929;28;20353;-68
2022/10/19 04:52:15;;;;;;;16.25;4.50;;;9.10;99.90;;;;;;5035433;28;20432;-68
2022/10/19 04:54:40;;;;;;;21.60;5.13;;;9.10;99.90;;;;;;5066735;28;20095;-67
2022/10/19 04:57:06;;;;;;;19.05;4.28;;;9.20;99.90;;;;;;5068698;28;20049;-68
2022/10/19 04:59:32;;;;;;;15.68;3.20;;;9.20;99.90;;;;;;5037840;28;20033;-68
2022/10/19 05:01:57;;;;;;;17.80;2.90;;;9.20;99.90;;;;;;5064524;28;20123;-68
2022/10/19 05:04:23;;;;;;;13.15;3.20;;;9.20;99.90;;;;;;5069693;28;20064;-68
2022/10/19 05:06:48;;;;;;;15.60;3.38;;;9.20;99.90;;;;;;5065020;28;20045;-68
2022/10/19 05:09:14;;;;;;;13.18;3.17;;;9.30;99.90;;;;;;5037385;28;20446;-67
2022/10/19 05:11:39;;;;;;;16.23;2.85;;;9.30;99.90;;;;;;5032173;28;20038;-68
2022/10/19 05:14:05;;;;;;;18.80;2.72;;;9.20;99.90;;;;;;5032731;28;20037;-68
2022/10/19 05:16:31;;;;;;;20.33;2.60;;;9.30;99.90;;;;;;5033518;28;20400;-68
2022/10/19 05:18:57;;;;;;;11.48;2.60;;;9.30;99.90;;;;;;5033027;28;20405;-67
2022/10/19 05:21:24;;;;;;;13.68;2.25;;;9.30;99.90;;;;;;5026691;28;20472;-67
2022/10/19 05:23:54;;;;;;;22.00;3.38;;;9.30;99.90;;;;;;5033512;28;20423;-68
2022/10/19 05:26:25;;;;;;;13.57;3.08;;;9.30;99.90;;;;;;5032489;28;20116;-68
2022/10/19 05:29:00;;;;;;;15.07;2.40;;;9.30;99.90;;;;;;5033120;28;20496;-68
2022/10/19 05:31:28;;;;;;;18.20;2.78;;;9.30;99.90;;;;;;5035481;28;20091;-68
2022/10/19 05:33:55;;;;;;;30.30;2.95;;;9.30;99.90;;;;;;5028134;28;20049;-68
2022/10/19 05:36:25;;;;;;;13.30;2.30;;;9.30;99.90;;;;;;5035908;28;20041;-68
2022/10/19 05:38:52;;;;;;;18.27;2.88;;;9.20;99.90;;;;;;5042091;28;20057;-68
2022/10/19 05:41:19;;;;;;;22.27;2.90;;;9.20;99.90;;;;;;5067474;28;20083;-68
2022/10/19 05:43:45;;;;;;;17.40;2.75;;;9.20;99.90;;;;;;5033396;28;20037;-68
2022/10/19 05:46:17;;;;;;;18.27;2.83;;;9.20;99.90;;;;;;5039069;28;20729;-68
2022/10/19 05:48:43;;;;;;;11.57;2.30;;;9.10;99.90;;;;;;5033343;28;20049;-68
2022/10/19 05:51:12;;;;;;;15.13;2.60;;;9.20;99.90;;;;;;5061775;28;20072;-69
2022/10/19 05:53:38;;;;;;;20.73;2.85;;;9.10;99.90;;;;;;5034912;28;20480;-68
2022/10/19 05:56:05;;;;;;;17.08;3.00;;;9.10;99.90;;;;;;5034649;28;20490;-69
2022/10/19 05:58:32;;;;;;;20.05;2.97;;;9.10;99.90;;;;;;5061982;28;20141;-68
2022/10/19 06:00:59;;;;;;;13.68;3.00;;;9.10;99.90;;;;;;5059156;28;20664;-68
2022/10/19 06:03:26;;;;;;;17.25;3.03;;;9.00;99.90;;;;;;5035093;28;20044;-68
2022/10/19 06:05:53;;;;;;;15.65;2.55;;;9.10;99.90;;;;;;5035870;28;20047;-68
2022/10/19 06:08:21;;;;;;;15.18;3.22;;;9.00;99.90;;;;;;5033218;28;20037;-67
2022/10/19 06:10:48;;;;;;;12.18;3.20;;;9.10;99.90;;;;;;5031585;28;20029;-68
2022/10/19 06:13:14;;;;;;;23.13;3.33;;;9.10;99.90;;;;;;5033652;28;20037;-68
2022/10/19 06:15:40;;;;;;;18.02;3.17;;;9.00;99.90;;;;;;5036662;28;20080;-68
2022/10/19 06:18:07;;;;;;;25.25;3.72;;;9.10;99.90;;;;;;5020820;28;20041;-68
2022/10/19 06:20:34;;;;;;;19.23;3.13;;;9.10;99.90;;;;;;5030212;28;20143;-68
2022/10/19 06:23:01;;;;;;;18.85;3.30;;;9.10;99.90;;;;;;5030517;28;20069;-68
2022/10/19 06:25:28;;;;;;;17.17;3.90;;;9.20;99.90;;;;;;5031194;28;20041;-68
2022/10/19 06:27:53;;;;;;;15.77;3.00;;;9.20;99.90;;;;;;5032240;28;20112;-67
2022/10/19 06:30:19;;;;;;;17.95;3.67;;;9.30;99.90;;;;;;5033023;28;20540;-68
2022/10/19 06:32:45;;;;;;;14.60;2.90;;;9.20;99.90;;;;;;5034827;28;20039;-68
2022/10/19 06:35:10;;;;;;;22.25;4.07;;;9.30;99.90;;;;;;5048005;28;20052;-68
2022/10/19 06:37:36;;;;;;;23.05;3.83;;;9.30;99.90;;;;;;5038182;28;20061;-68
2022/10/19 06:40:02;;;;;;;18.92;3.50;;;9.30;99.90;;;;;;5046559;28;20049;-68
2022/10/19 06:42:28;;;;;;;18.80;3.53;;;9.30;99.90;;;;;;5036751;28;20049;-68
2022/10/19 06:44:53;;;;;;;13.40;4.03;;;9.40;99.90;;;;;;5061796;28;20396;-68
2022/10/19 06:47:19;;;;;;;14.13;3.50;;;9.40;99.90;;;;;;5033788;28;20191;-68
2022/10/19 06:49:45;;;;;;;21.98;3.40;;;9.40;99.90;;;;;;5032600;28;20041;-68
2022/10/19 06:52:10;;;;;;;18.55;3.45;;;9.50;99.90;;;;;;5028358;28;20055;-68
2022/10/19 06:54:36;;;;;;;11.95;3.58;;;9.50;99.90;;;;;;5032497;28;20128;-68
2022/10/19 06:57:01;;;;;;;20.50;3.45;;;9.50;99.90;;;;;;5032398;28;20385;-68
2022/10/19 06:59:27;;;;;;;20.40;3.03;;;9.60;99.90;;;;;;5028182;28;20153;-68
2022/10/19 07:01:52;;;;;;;16.10;3.10;;;9.60;99.90;;;;;;5032248;28;20038;-68
2022/10/19 07:04:18;;;;;;;14.40;3.58;;;9.70;99.90;;;;;;5030116;28;20477;-68
2022/10/19 07:06:43;;;;;;;19.90;3.97;;;9.70;99.90;;;;;;5030127;28;20432;-67
2022/10/19 07:09:09;;;;;;;19.00;3.58;;;9.70;99.90;;;;;;5032337;28;20037;-68
2022/10/19 07:11:35;;;;;;;20.55;3.75;;;9.80;99.90;;;;;;5029438;28;20898;-68
2022/10/19 07:14:00;;;;;;;22.50;3.65;;;9.90;99.90;;;;;;5036361;28;20037;-68
2022/10/19 07:16:26;;;;;;;22.42;3.65;;;10.00;99.90;;;;;;5029780;28;20129;-68
2022/10/19 07:18:52;;;;;;;17.02;3.28;;;9.90;99.90;;;;;;5036998;28;20064;-68
2022/10/19 07:21:20;;;;;;;27.27;3.55;;;10.00;99.90;;;;;;5033577;28;20053;-68
2022/10/19 07:23:46;;;;;;;29.45;3.63;;;10.00;99.90;;;;;;5030810;28;20492;-68
2022/10/19 07:26:16;;;;;;;26.45;3.45;;;10.00;99.90;;;;;;5051152;28;20037;-68
2022/10/19 07:28:44;;;;;;;22.42;3.35;;;10.10;99.90;;;;;;5028320;28;20471;-68
2022/10/19 07:31:13;;;;;;;15.57;3.20;;;10.20;99.90;;;;;;5041278;28;20042;-68
2022/10/19 07:33:39;;;;;;;22.67;3.22;;;10.20;99.90;;;;;;5045224;28;20395;-68
2022/10/19 07:36:07;;;;;;;22.30;3.83;;;10.20;99.90;;;;;;5029351;28;20041;-68
2022/10/19 07:38:34;;;;;;;17.48;2.92;;;10.30;99.90;;;;;;5030361;28;20041;-68
2022/10/19 07:41:07;;;;;;;22.50;3.28;;;10.40;99.90;;;;;;5032325;28;20038;-68
2022/10/19 07:43:33;;;;;;;22.63;3.47;;;10.40;99.90;;;;;;5068366;28;20373;-68
2022/10/19 07:46:01;;;;;;;26.83;4.22;;;10.40;99.90;;;;;;5036105;28;20063;-68
2022/10/19 07:48:28;;;;;;;19.10;2.78;;;10.50;99.90;;;;;;5034227;28;20401;-68
2022/10/19 07:50:53;;;;;;;20.35;3.13;;;10.60;99.90;;;;;;5070506;28;20025;-68
2022/10/19 07:53:19;;;;;;;19.00;3.50;;;10.60;99.90;;;;;;5036873;28;20107;-68
2022/10/19 07:55:44;;;;;;;25.20;3.17;;;10.70;99.90;;;;;;5031699;28;20095;-68
2022/10/19 07:58:10;;;;;;;22.23;3.35;;;10.70;99.90;;;;;;5059329;28;20041;-69
2022/10/19 08:00:35;;;;;;;21.13;3.22;;;10.80;99.90;;;;;;5033857;28;20041;-68
2022/10/19 08:03:01;;;;;;;24.92;2.90;;;10.90;99.90;;;;;;5068497;28;20127;-68
2022/10/19 08:05:27;;;;;;;24.35;3.05;;;11.00;99.90;;;;;;5044130;28;20041;-69
2022/10/19 08:07:52;;;;;;;22.70;2.85;;;11.00;99.90;;;;;;5036595;28;20033;-69
2022/10/19 08:10:18;;;;;;;22.48;3.75;;;11.20;99.90;;;;;;5064493;28;20398;-69
2022/10/19 08:12:43;;;;;;;24.95;2.80;;;11.30;99.90;;;;;;5045656;28;20451;-69
2022/10/19 08:15:09;;;;;;;27.35;3.00;;;11.30;99.90;;;;;;5051733;28;20036;-68
2022/10/19 08:17:38;;;;;;;23.65;3.10;;;11.30;99.90;;;;;;5045098;28;20037;-68
2022/10/19 08:20:05;;;;;;;24.20;3.63;;;11.40;99.90;;;;;;5072666;28;20482;-68
2022/10/19 08:22:30;;;;;;;27.00;4.13;;;11.40;99.90;;;;;;5050312;28;20051;-68
2022/10/19 08:24:56;;;;;;;31.73;3.63;;;11.40;99.90;;;;;;5042756;28;20041;-68
2022/10/19 08:27:22;;;;;;;23.98;3.50;;;11.50;99.90;;;;;;5048215;28;20037;-67
2022/10/19 08:29:47;;;;;;;32.20;3.25;;;11.50;99.90;;;;;;5035127;28;20045;-67
2022/10/19 08:32:13;;;;;;;21.70;2.95;;;11.50;99.90;;;;;;5068304;28;20506;-67
2022/10/19 08:34:39;;;;;;;25.15;2.53;;;11.50;99.90;;;;;;5078021;28;20057;-67
2022/10/19 08:37:04;;;;;;;19.10;2.92;;;11.50;99.90;;;;;;5034850;28;20041;-66
2022/10/19 08:39:30;;;;;;;27.20;3.17;;;11.50;99.90;;;;;;5050015;28;20043;-67
2022/10/19 08:42:15;;;;;;;25.42;2.65;;;11.50;99.90;;;;;;5053065;28;20500;-66
2022/10/19 08:44:58;;;;;;;22.38;3.05;;;11.50;99.90;;;;;;5047844;28;20044;-66
2022/10/19 08:47:36;;;;;;;18.60;2.58;;;11.50;99.90;;;;;;5047638;28;20294;-66
2022/10/19 08:50:08;;;;;;;27.33;2.60;;;11.60;99.90;;;;;;5049686;28;20116;-66
2022/10/19 08:52:35;;;;;;;30.50;3.08;;;11.60;99.90;;;;;;5081016;28;20520;-66
2022/10/19 08:55:07;;;;;;;30.30;2.83;;;11.60;99.90;;;;;;5048986;28;20079;-66
2022/10/19 08:57:51;;;;;;;22.52;3.08;;;11.60;99.90;;;;;;5044587;28;20116;-66
2022/10/19 09:00:39;;;;;;;16.52;2.50;;;11.60;99.90;;;;;;5046889;28;20076;-66
2022/10/19 09:03:15;;;;;;;21.23;2.95;;;11.70;99.90;;;;;;5030673;28;20059;-66
2022/10/19 09:05:50;;;;;;;18.90;2.72;;;11.60;99.90;;;;;;5065482;28;20045;-66
2022/10/19 09:08:18;;;;;;;25.02;3.08;;;11.60;99.90;;;;;;5040700;28;20044;-67
2022/10/19 09:10:47;;;;;;;22.40;2.60;;;11.70;99.90;;;;;;5048128;28;20052;-65
2022/10/19 09:13:34;;;;;;;23.42;2.85;;;11.70;99.90;;;;;;5045781;28;20045;-64
2022/10/19 09:16:01;;;;;;;16.75;2.83;;;11.80;99.90;;;;;;5050145;28;20053;-64
2022/10/19 09:18:29;;;;;;;25.13;3.08;;;11.80;99.90;;;;;;5047849;28;20105;-64
2022/10/19 09:21:19;;;;;;;30.45;3.03;;;11.90;99.90;;;;;;5037605;28;20112;-64
2022/10/19 09:23:57;;;;;;;25.50;2.33;;;12.00;99.90;;;;;;5046910;28;20053;-64
2022/10/19 09:26:29;;;;;;;24.05;2.78;;;12.10;99.90;;;;;;5043516;28;20095;-64
2022/10/19 09:29:18;;;;;;;22.00;3.17;;;12.20;99.90;;;;;;5048510;28;20033;-64
2022/10/19 09:31:44;;;;;;;32.95;3.13;;;12.30;99.90;;;;;;5037029;28;20057;-64
2022/10/19 09:34:22;;;;;;;29.25;3.22;;;12.30;99.90;;;;;;5047759;28;20037;-64
2022/10/19 09:36:53;;;;;;;24.98;2.60;;;12.30;99.90;;;;;;5041763;28;20080;-64
2022/10/19 09:39:19;;;;;;;23.13;3.45;;;12.20;99.90;;;;;;5026010;28;20038;-63
2022/10/19 09:41:53;;;;;;;19.00;3.30;;;12.20;99.90;;;;;;5029656;28;20052;-63
2022/10/19 09:44:21;;;;;;;29.50;3.22;;;12.10;99.90;;;;;;5067486;28;20049;-64
2022/10/19 09:46:52;;;;;;;29.85;3.03;;;12.10;99.90;;;;;;5047171;28;20033;-63
2022/10/19 09:49:36;;;;;;;18.60;2.63;;;12.10;99.90;;;;;;5039139;28;20070;-63
2022/10/19 09:52:02;;;;;;;30.48;3.15;;;12.10;99.90;;;;;;5039024;28;20396;-63
2022/10/19 09:54:36;;;;;;;21.52;2.75;;;12.10;99.90;;;;;;5046531;28;20044;-63
2022/10/19 09:57:03;;;;;;;22.35;3.03;;;12.20;99.90;;;;;;5032639;28;20049;-65
2022/10/19 09:59:34;;;;;;;24.98;3.30;;;12.20;99.90;;;;;;5048129;28;20166;-64
2022/10/19 10:02:14;;;;;;;27.98;3.70;;;12.30;99.90;;;;;;5048465;28;20047;-64
2022/10/19 10:04:40;;;;;;;34.67;3.38;;;12.30;99.90;;;;;;5046949;28;20041;-64
2022/10/19 10:07:12;;;;;;;23.15;2.70;;;12.50;99.90;;;;;;5044372;28;20098;-64
2022/10/19 10:09:41;;;;;;;23.05;2.80;;;12.50;99.90;;;;;;5042016;28;20040;-65
2022/10/19 10:12:07;;;;;;;21.48;3.10;;;12.50;99.90;;;;;;5047877;28;20083;-63
2022/10/19 10:14:35;;;;;;;21.15;3.20;;;12.60;99.90;;;;;;5075798;28;20045;-64
2022/10/19 10:17:12;;;;;;;17.05;2.97;;;12.70;99.90;;;;;;5046665;28;20045;-63
2022/10/19 10:20:08;;;;;;;24.20;2.63;;;12.70;99.90;;;;;;5047703;28;20040;-64
2022/10/19 10:22:35;;;;;;;19.90;2.60;;;12.80;99.90;;;;;;5028930;28;20049;-63
2022/10/19 10:25:09;;;;;;;31.92;3.50;;;12.80;99.90;;;;;;5046822;28;20768;-63
2022/10/19 10:27:37;;;;;;;28.13;2.95;;;13.00;99.90;;;;;;5049019;28;20037;-64
2022/10/19 10:30:09;;;;;;;33.25;3.35;;;13.10;99.90;;;;;;5049295;28;20493;-65
2022/10/19 10:32:46;;;;;;;22.27;4.28;;;13.10;99.90;;;;;;5046755;28;20454;-64
2022/10/19 10:35:34;;;;;;;22.77;3.53;;;13.00;99.90;;;;;;5031597;28;20464;-63
2022/10/19 10:38:16;;;;;;;22.75;3.20;;;12.80;99.90;;;;;;5047469;28;21508;-62
2022/10/19 10:40:50;;;;;;;17.65;2.80;;;12.70;99.90;;;;;;5042568;28;20057;-64
2022/10/19 10:43:17;;;;;;;21.77;2.95;;;12.60;99.90;;;;;;5039914;28;20063;-64
2022/10/19 10:45:47;;;;;;;13.93;2.53;;;12.50;99.90;;;;;;5048049;28;20044;-63
2022/10/19 10:48:24;;;;;;;28.60;4.63;;;12.40;99.90;;;;;;5047432;28;20060;-64
2022/10/19 10:50:51;;;;;;;21.95;3.38;;;12.50;99.90;;;;;;5049776;28;20033;-64
2022/10/19 10:53:38;;;;;;;23.00;3.90;;;12.70;99.90;;;;;;5029832;28;20434;-63
2022/10/19 10:56:18;;;;;;;23.45;3.63;;;12.90;99.90;;;;;;5075214;28;20049;-65
2022/10/19 10:59:01;;;;;;;25.23;4.07;;;13.10;99.90;;;;;;5040494;28;20119;-63
2022/10/19 11:01:32;;;;;;;14.25;3.75;;;13.20;99.90;;;;;;5061946;28;20077;-64
2022/10/19 11:04:19;;;;;;;25.83;4.43;;;13.20;99.90;;;;;;5037092;28;20044;-64
2022/10/19 11:06:55;;;;;;;18.50;4.70;;;13.10;99.90;;;;;;5076550;28;20028;-64
2022/10/19 11:09:33;;;;;;;21.65;4.30;;;13.10;99.90;;;;;;5046008;28;20480;-64
2022/10/19 11:12:03;;;;;;;23.75;4.55;;;12.90;99.90;;;;;;5072309;28;20128;-63
2022/10/19 11:14:42;;;;;;;29.50;4.75;;;12.80;99.90;;;;;;5038232;28;20099;-63
2022/10/19 11:17:32;;;;;;;25.88;4.40;;;12.80;99.90;;;;;;5049094;28;20148;-64
2022/10/19 11:19:58;;;;;;;21.48;5.05;;;12.90;99.90;;;;;;5044503;28;20539;-64
2022/10/19 11:22:39;;;;;;;20.25;4.22;;;13.00;99.90;;;;;;5081668;28;20087;-65
2022/10/19 11:25:22;;;;;;;27.65;4.50;;;13.10;99.90;;;;;;5073382;28;20036;-64
2022/10/19 11:28:10;;;;;;;18.52;4.35;;;13.30;99.90;;;;;;5043803;28;20037;-64
2022/10/19 11:30:46;;;;;;;21.55;4.40;;;13.30;99.90;;;;;;5045559;28;20044;-64
2022/10/19 11:33:33;;;;;;;24.15;4.25;;;13.40;99.90;;;;;;5044517;28;20036;-64
2022/10/19 11:36:24;;;;;;;23.15;3.75;;;13.50;99.90;;;;;;5046173;28;20049;-63
2022/10/19 11:39:15;;;;;;;23.98;3.75;;;13.60;99.90;;;;;;5035319;28;20098;-64
2022/10/19 11:42:07;;;;;;;25.33;3.72;;;13.50;99.90;;;;;;5053129;28;20439;-64
2022/10/19 11:44:50;;;;;;;23.73;3.88;;;13.40;99.90;;;;;;5048813;28;20044;-64
2022/10/19 11:47:31;;;;;;;22.98;4.15;;;13.40;99.90;;;;;;5054373;28;20391;-64
2022/10/19 11:50:01;;;;;;;22.13;3.85;;;13.30;99.90;;;;;;5049382;28;20036;-63
2022/10/19 11:52:49;;;;;;;24.98;4.68;;;13.20;99.90;;;;;;5053167;28;20040;-64
2022/10/19 11:55:44;;;;;;;23.42;4.45;;;13.10;99.90;;;;;;5048722;28;20068;-64
2022/10/19 11:58:12;;;;;;;33.83;4.00;;;13.10;99.90;;;;;;5044789;28;20044;-64
2022/10/19 12:01:09;;;;;;;25.70;4.05;;;13.10;99.90;;;;;;5037309;28;20485;-64
2022/10/19 12:03:59;;;;;;;21.60;3.80;;;13.10;99.90;;;;;;5039359;28;20041;-64
2022/10/19 12:06:34;;;;;;;20.08;3.35;;;13.20;99.90;;;;;;5028752;28;20037;-63
2022/10/19 12:09:00;;;;;;;28.63;4.18;;;13.20;99.90;;;;;;5053406;28;20049;-63
2022/10/19 12:11:51;;;;;;;24.58;4.05;;;13.20;99.90;;;;;;5054202;28;20137;-63
2022/10/19 12:14:25;;;;;;;17.15;4.82;;;13.20;99.90;;;;;;5048627;28;20306;-64
2022/10/19 12:16:55;;;;;;;21.45;4.60;;;13.20;99.90;;;;;;5049966;28;20108;-64
2022/10/19 12:19:28;;;;;;;27.67;5.30;;;13.30;99.90;;;;;;5051344;28;20055;-64
2022/10/19 12:21:59;;;;;;;23.25;5.72;;;13.30;99.90;;;;;;5052428;28;20056;-63
2022/10/19 12:24:27;;;;;;;19.88;5.90;;;13.20;99.90;;;;;;5053296;28;20115;-64
2022/10/19 12:26:54;;;;;;;31.65;6.22;;;13.10;99.90;;;;;;5049132;28;20062;-64
2022/10/19 12:29:35;;;;;;;26.00;6.22;;;13.10;99.90;;;;;;5048883;28;20045;-63
2022/10/19 12:32:03;;;;;;;25.20;6.70;;;13.10;99.90;;;;;;5044234;28;20033;-64
2022/10/19 12:34:31;;;;;;;28.15;6.05;;;13.00;99.90;;;;;;5050067;28;20065;-63
2022/10/19 12:37:10;;;;;;;23.90;6.28;;;13.00;99.90;;;;;;5050294;28;20048;-63
2022/10/19 12:39:52;;;;;;;25.10;7.15;;;13.00;99.90;;;;;;5043359;28;20499;-63
2022/10/19 12:42:21;;;;;;;32.73;7.73;;;13.00;99.90;;;;;;5048126;28;20069;-63
2022/10/19 12:45:08;;;;;;;31.15;7.82;;;12.90;99.90;;;;;;5050885;28;20025;-64
2022/10/19 12:47:34;;;;;;;22.63;6.75;;;12.80;99.90;;;;;;5051100;28;20032;-65
2022/10/19 12:50:00;;;;;;;23.60;7.03;;;12.80;99.90;;;;;;5049489;28;20395;-64
2022/10/19 12:52:37;;;;;;;24.58;7.85;;;12.80;99.90;;;;;;5050249;28;20049;-63
2022/10/19 12:55:11;;;;;;;29.55;7.30;;;12.70;99.90;;;;;;5042669;28;20041;-64
2022/10/19 12:57:38;;;;;;;28.48;6.40;;;12.70;99.90;;;;;;5047564;28;20037;-64
2022/10/19 13:00:21;;;;;;;25.55;6.43;;;12.60;99.90;;;;;;5036413;28;20076;-65
2022/10/19 13:03:14;;;;;;;25.83;6.28;;;12.60;99.90;;;;;;5047995;28;20099;-64